Terminal Aerodrome Forecast
Issued by NWS

Home | Current Version | Previous Version | Text Only | Print | Product List | Glossary On
Versions: 1 2 3 4 5 6 7 8 9 10 11 12 13 14
000
FTUS46 KLOX 300500 RRA
TAFLGB
TAF
KLGB 300548Z 3006/3106 VRB03KT P6SM OVC110
     FM301500 VRB03KT 4SM BR BKN080 OVC100
     FM302000 19006KT P6SM BKN070 OVC100
     FM310000 24007KT P6SM BKN070 OVC100
     FM310300 VRB03KT P6SM BKN060 OVC090=

USA.gov is the U.S. government's official web portal to all federal, state and local government web resources and services.